sensor_id;sensor_type;location;lat;lon;timestamp;P1;durP1;ratioP1;P2;durP2;ratioP2
44048;SDS011;29717;47.028;15.470;2023-04-24T00:02:00;6.32;;;5.75;;
44048;SDS011;29717;47.028;15.470;2023-04-24T00:04:28;6.53;;;5.93;;
44048;SDS011;29717;47.028;15.470;2023-04-24T00:06:57;7.47;;;5.78;;
44048;SDS011;29717;47.028;15.470;2023-04-24T00:09:25;8.45;;;5.95;;
44048;SDS011;29717;47.028;15.470;2023-04-24T00:11:52;6.88;;;5.85;;
44048;SDS011;29717;47.028;15.470;2023-04-24T00:14:21;6.57;;;5.97;;
44048;SDS011;29717;47.028;15.470;2023-04-24T00:16:48;6.38;;;5.78;;
44048;SDS011;29717;47.028;15.470;2023-04-24T00:19:15;6.43;;;5.82;;
44048;SDS011;29717;47.028;15.470;2023-04-24T00:21:42;6.90;;;6.30;;
44048;SDS011;29717;47.028;15.470;2023-04-24T00:24:09;6.82;;;6.13;;
44048;SDS011;29717;47.028;15.470;2023-04-24T00:26:36;6.40;;;5.80;;
44048;SDS011;29717;47.028;15.470;2023-04-24T00:29:02;7.53;;;6.82;;
44048;SDS011;29717;47.028;15.470;2023-04-24T00:31:30;7.40;;;6.75;;
44048;SDS011;29717;47.028;15.470;2023-04-24T00:34:00;7.07;;;6.38;;
44048;SDS011;29717;47.028;15.470;2023-04-24T00:36:28;6.28;;;5.70;;
44048;SDS011;29717;47.028;15.470;2023-04-24T00:38:56;6.82;;;5.65;;
44048;SDS011;29717;47.028;15.470;2023-04-24T00:41:24;5.65;;;5.05;;
44048;SDS011;29717;47.028;15.470;2023-04-24T00:43:51;6.20;;;5.60;;
44048;SDS011;29717;47.028;15.470;2023-04-24T00:46:18;6.38;;;5.78;;
44048;SDS011;29717;47.028;15.470;2023-04-24T00:48:47;10.05;;;6.30;;
44048;SDS011;29717;47.028;15.470;2023-04-24T00:51:14;5.88;;;5.30;;
44048;SDS011;29717;47.028;15.470;2023-04-24T00:53:41;5.28;;;4.88;;
44048;SDS011;29717;47.028;15.470;2023-04-24T00:56:08;5.50;;;5.00;;
44048;SDS011;29717;47.028;15.470;2023-04-24T00:58:35;6.50;;;5.60;;
44048;SDS011;29717;47.028;15.470;2023-04-24T01:01:02;6.85;;;5.82;;
44048;SDS011;29717;47.028;15.470;2023-04-24T01:06:04;5.95;;;5.35;;
44048;SDS011;29717;47.028;15.470;2023-04-24T01:08:32;7.15;;;5.78;;
44048;SDS011;29717;47.028;15.470;2023-04-24T01:10:59;6.97;;;5.50;;
44048;SDS011;29717;47.028;15.470;2023-04-24T01:13:29;5.40;;;4.90;;
44048;SDS011;29717;47.028;15.470;2023-04-24T01:15:58;6.47;;;5.00;;
44048;SDS011;29717;47.028;15.470;2023-04-24T01:18:28;5.63;;;5.10;;
44048;SDS011;29717;47.028;15.470;2023-04-24T01:20:56;6.22;;;5.63;;
44048;SDS011;29717;47.028;15.470;2023-04-24T01:23:25;6.63;;;5.32;;
44048;SDS011;29717;47.028;15.470;2023-04-24T01:25:52;7.65;;;5.80;;
44048;SDS011;29717;47.028;15.470;2023-04-24T01:28:19;6.00;;;5.47;;
44048;SDS011;29717;47.028;15.470;2023-04-24T01:30:46;8.55;;;6.03;;
44048;SDS011;29717;47.028;15.470;2023-04-24T01:33:14;6.75;;;6.05;;
44048;SDS011;29717;47.028;15.470;2023-04-24T01:35:41;9.85;;;5.90;;
44048;SDS011;29717;47.028;15.470;2023-04-24T01:38:08;7.32;;;6.38;;
44048;SDS011;29717;47.028;15.470;2023-04-24T01:40:36;6.85;;;6.18;;
44048;SDS011;29717;47.028;15.470;2023-04-24T01:43:03;7.00;;;6.30;;
44048;SDS011;29717;47.028;15.470;2023-04-24T01:45:30;6.78;;;5.65;;
44048;SDS011;29717;47.028;15.470;2023-04-24T01:47:57;7.05;;;5.72;;
44048;SDS011;29717;47.028;15.470;2023-04-24T01:50:24;7.07;;;6.00;;
44048;SDS011;29717;47.028;15.470;2023-04-24T01:52:51;6.38;;;5.50;;
44048;SDS011;29717;47.028;15.470;2023-04-24T01:55:18;6.20;;;5.18;;
44048;SDS011;29717;47.028;15.470;2023-04-24T01:57:46;6.10;;;5.35;;
44048;SDS011;29717;47.028;15.470;2023-04-24T02:00:14;5.45;;;4.95;;
44048;SDS011;29717;47.028;15.470;2023-04-24T02:02:43;8.00;;;5.75;;
44048;SDS011;29717;47.028;15.470;2023-04-24T02:05:10;5.45;;;4.93;;
44048;SDS011;29717;47.028;15.470;2023-04-24T02:07:41;6.93;;;4.95;;
44048;SDS011;29717;47.028;15.470;2023-04-24T02:10:11;5.93;;;5.32;;
44048;SDS011;29717;47.028;15.470;2023-04-24T02:12:53;6.55;;;5.88;;
44048;SDS011;29717;47.028;15.470;2023-04-24T02:15:20;5.55;;;5.05;;
44048;SDS011;29717;47.028;15.470;2023-04-24T02:17:47;5.18;;;4.68;;
44048;SDS011;29717;47.028;15.470;2023-04-24T02:20:14;5.32;;;4.82;;
44048;SDS011;29717;47.028;15.470;2023-04-24T02:22:41;5.43;;;4.72;;
44048;SDS011;29717;47.028;15.470;2023-04-24T02:25:10;5.18;;;4.68;;
44048;SDS011;29717;47.028;15.470;2023-04-24T02:27:37;6.38;;;5.57;;
44048;SDS011;29717;47.028;15.470;2023-04-24T02:30:07;5.63;;;5.07;;
44048;SDS011;29717;47.028;15.470;2023-04-24T02:32:34;7.13;;;5.80;;
44048;SDS011;29717;47.028;15.470;2023-04-24T02:35:04;7.10;;;6.10;;
44048;SDS011;29717;47.028;15.470;2023-04-24T02:37:31;7.38;;;5.50;;
44048;SDS011;29717;47.028;15.470;2023-04-24T02:40:03;9.82;;;5.93;;
44048;SDS011;29717;47.028;15.470;2023-04-24T02:42:33;6.45;;;5.85;;
44048;SDS011;29717;47.028;15.470;2023-04-24T02:45:00;8.00;;;6.15;;
44048;SDS011;29717;47.028;15.470;2023-04-24T02:47:28;6.78;;;5.95;;
44048;SDS011;29717;47.028;15.470;2023-04-24T02:49:55;6.68;;;5.97;;
44048;SDS011;29717;47.028;15.470;2023-04-24T02:52:22;8.13;;;6.13;;
44048;SDS011;29717;47.028;15.470;2023-04-24T02:54:48;7.43;;;5.88;;
44048;SDS011;29717;47.028;15.470;2023-04-24T02:57:15;6.13;;;5.53;;
44048;SDS011;29717;47.028;15.470;2023-04-24T02:59:42;6.68;;;6.03;;
44048;SDS011;29717;47.028;15.470;2023-04-24T03:02:09;6.32;;;5.72;;
44048;SDS011;29717;47.028;15.470;2023-04-24T03:04:37;8.95;;;5.57;;
44048;SDS011;29717;47.028;15.470;2023-04-24T03:07:05;6.45;;;5.82;;
44048;SDS011;29717;47.028;15.470;2023-04-24T03:09:32;6.15;;;5.55;;
44048;SDS011;29717;47.028;15.470;2023-04-24T03:11:58;7.18;;;6.28;;
44048;SDS011;29717;47.028;15.470;2023-04-24T03:14:25;6.25;;;5.22;;
44048;SDS011;29717;47.028;15.470;2023-04-24T03:16:52;6.68;;;5.95;;
44048;SDS011;29717;47.028;15.470;2023-04-24T03:19:19;6.13;;;5.55;;
44048;SDS011;29717;47.028;15.470;2023-04-24T03:21:47;8.55;;;5.47;;
44048;SDS011;29717;47.028;15.470;2023-04-24T03:24:14;6.97;;;5.53;;
44048;SDS011;29717;47.028;15.470;2023-04-24T03:26:41;6.13;;;5.53;;
44048;SDS011;29717;47.028;15.470;2023-04-24T03:29:07;7.43;;;5.25;;
44048;SDS011;29717;47.028;15.470;2023-04-24T03:31:34;6.63;;;5.93;;
44048;SDS011;29717;47.028;15.470;2023-04-24T03:34:01;7.18;;;5.72;;
44048;SDS011;29717;47.028;15.470;2023-04-24T03:36:28;5.88;;;5.28;;
44048;SDS011;29717;47.028;15.470;2023-04-24T03:38:57;8.35;;;5.38;;
44048;SDS011;29717;47.028;15.470;2023-04-24T03:41:23;6.95;;;5.80;;
44048;SDS011;29717;47.028;15.470;2023-04-24T03:43:50;5.85;;;5.15;;
44048;SDS011;29717;47.028;15.470;2023-04-24T03:46:17;7.20;;;5.00;;
44048;SDS011;29717;47.028;15.470;2023-04-24T03:48:44;5.60;;;5.10;;
44048;SDS011;29717;47.028;15.470;2023-04-24T03:51:11;5.38;;;4.88;;
44048;SDS011;29717;47.028;15.470;2023-04-24T03:53:37;5.40;;;4.90;;
44048;SDS011;29717;47.028;15.470;2023-04-24T03:56:06;5.50;;;4.90;;
44048;SDS011;29717;47.028;15.470;2023-04-24T03:58:33;5.50;;;4.88;;
44048;SDS011;29717;47.028;15.470;2023-04-24T04:01:00;6.50;;;5.03;;
44048;SDS011;29717;47.028;15.470;2023-04-24T04:03:28;7.07;;;5.15;;
44048;SDS011;29717;47.028;15.470;2023-04-24T04:05:54;7.40;;;4.93;;
44048;SDS011;29717;47.028;15.470;2023-04-24T04:08:21;6.07;;;5.05;;
44048;SDS011;29717;47.028;15.470;2023-04-24T04:10:48;8.77;;;7.88;;
44048;SDS011;29717;47.028;15.470;2023-04-24T04:13:17;8.05;;;7.18;;
44048;SDS011;29717;47.028;15.470;2023-04-24T04:15:43;7.80;;;7.10;;
44048;SDS011;29717;47.028;15.470;2023-04-24T04:18:11;8.25;;;6.85;;
44048;SDS011;29717;47.028;15.470;2023-04-24T04:20:37;10.80;;;7.47;;
44048;SDS011;29717;47.028;15.470;2023-04-24T04:23:04;7.32;;;6.45;;
44048;SDS011;29717;47.028;15.470;2023-04-24T04:25:31;7.00;;;6.30;;
44048;SDS011;29717;47.028;15.470;2023-04-24T04:27:58;6.35;;;5.75;;
44048;SDS011;29717;47.028;15.470;2023-04-24T04:30:26;7.95;;;5.78;;
44048;SDS011;29717;47.028;15.470;2023-04-24T04:32:54;12.95;;;6.38;;
44048;SDS011;29717;47.028;15.470;2023-04-24T04:35:21;8.68;;;6.00;;
44048;SDS011;29717;47.028;15.470;2023-04-24T04:37:48;8.18;;;6.35;;
44048;SDS011;29717;47.028;15.470;2023-04-24T04:40:17;7.25;;;6.55;;
44048;SDS011;29717;47.028;15.470;2023-04-24T04:42:44;9.55;;;6.32;;
44048;SDS011;29717;47.028;15.470;2023-04-24T04:45:11;10.43;;;6.20;;
44048;SDS011;29717;47.028;15.470;2023-04-24T04:47:39;10.10;;;6.25;;
44048;SDS011;29717;47.028;15.470;2023-04-24T04:50:06;6.55;;;5.85;;
44048;SDS011;29717;47.028;15.470;2023-04-24T04:52:33;7.88;;;6.75;;
44048;SDS011;29717;47.028;15.470;2023-04-24T04:55:00;9.20;;;5.80;;
44048;SDS011;29717;47.028;15.470;2023-04-24T04:57:27;7.60;;;6.22;;
44048;SDS011;29717;47.028;15.470;2023-04-24T04:59:54;9.35;;;6.65;;
44048;SDS011;29717;47.028;15.470;2023-04-24T05:02:24;6.80;;;6.13;;
44048;SDS011;29717;47.028;15.470;2023-04-24T05:04:52;12.25;;;6.40;;
44048;SDS011;29717;47.028;15.470;2023-04-24T05:07:21;8.43;;;6.68;;
44048;SDS011;29717;47.028;15.470;2023-04-24T05:09:51;10.65;;;7.32;;
44048;SDS011;29717;47.028;15.470;2023-04-24T05:12:19;10.43;;;7.10;;
44048;SDS011;29717;47.028;15.470;2023-04-24T05:14:47;11.57;;;7.40;;
44048;SDS011;29717;47.028;15.470;2023-04-24T05:17:14;8.50;;;7.25;;
44048;SDS011;29717;47.028;15.470;2023-04-24T05:19:42;9.43;;;7.22;;
44048;SDS011;29717;47.028;15.470;2023-04-24T05:22:13;14.25;;;7.63;;
44048;SDS011;29717;47.028;15.470;2023-04-24T05:24:39;9.25;;;7.25;;
44048;SDS011;29717;47.028;15.470;2023-04-24T05:27:06;9.45;;;7.90;;
44048;SDS011;29717;47.028;15.470;2023-04-24T05:29:33;8.77;;;7.40;;
44048;SDS011;29717;47.028;15.470;2023-04-24T05:32:00;11.60;;;8.57;;
44048;SDS011;29717;47.028;15.470;2023-04-24T05:34:27;11.15;;;8.75;;
44048;SDS011;29717;47.028;15.470;2023-04-24T05:36:53;12.88;;;8.60;;
44048;SDS011;29717;47.028;15.470;2023-04-24T05:39:22;12.98;;;8.55;;
44048;SDS011;29717;47.028;15.470;2023-04-24T05:41:56;10.55;;;8.32;;
44048;SDS011;29717;47.028;15.470;2023-04-24T05:44:24;8.88;;;7.97;;
44048;SDS011;29717;47.028;15.470;2023-04-24T05:46:50;12.45;;;8.88;;
44048;SDS011;29717;47.028;15.470;2023-04-24T05:49:17;10.07;;;8.57;;
44048;SDS011;29717;47.028;15.470;2023-04-24T05:51:44;12.20;;;9.05;;
44048;SDS011;29717;47.028;15.470;2023-04-24T05:54:11;11.02;;;8.73;;
44048;SDS011;29717;47.028;15.470;2023-04-24T05:56:39;12.85;;;8.40;;
44048;SDS011;29717;47.028;15.470;2023-04-24T05:59:06;13.07;;;9.20;;
44048;SDS011;29717;47.028;15.470;2023-04-24T06:01:33;12.43;;;9.32;;
44048;SDS011;29717;47.028;15.470;2023-04-24T06:04:02;15.80;;;9.65;;
44048;SDS011;29717;47.028;15.470;2023-04-24T06:06:29;12.32;;;8.55;;
44048;SDS011;29717;47.028;15.470;2023-04-24T06:08:56;10.43;;;7.97;;
44048;SDS011;29717;47.028;15.470;2023-04-24T06:11:24;9.63;;;7.82;;
44048;SDS011;29717;47.028;15.470;2023-04-24T06:13:52;10.10;;;8.15;;
44048;SDS011;29717;47.028;15.470;2023-04-24T06:16:19;11.27;;;9.20;;
44048;SDS011;29717;47.028;15.470;2023-04-24T06:18:49;11.40;;;8.63;;
44048;SDS011;29717;47.028;15.470;2023-04-24T06:21:17;14.25;;;8.80;;
44048;SDS011;29717;47.028;15.470;2023-04-24T06:23:44;11.35;;;8.50;;
44048;SDS011;29717;47.028;15.470;2023-04-24T06:26:11;10.43;;;9.20;;
44048;SDS011;29717;47.028;15.470;2023-04-24T06:28:41;9.93;;;8.93;;
44048;SDS011;29717;47.028;15.470;2023-04-24T06:31:09;11.32;;;9.02;;
44048;SDS011;29717;47.028;15.470;2023-04-24T06:33:36;11.10;;;9.35;;
44048;SDS011;29717;47.028;15.470;2023-04-24T06:36:03;11.65;;;9.75;;
44048;SDS011;29717;47.028;15.470;2023-04-24T06:38:30;13.57;;;9.40;;
44048;SDS011;29717;47.028;15.470;2023-04-24T06:41:01;9.80;;;7.82;;
44048;SDS011;29717;47.028;15.470;2023-04-24T06:43:30;10.23;;;8.50;;
44048;SDS011;29717;47.028;15.470;2023-04-24T06:45:57;9.25;;;8.00;;
44048;SDS011;29717;47.028;15.470;2023-04-24T06:48:30;10.93;;;8.18;;
44048;SDS011;29717;47.028;15.470;2023-04-24T06:50:57;10.85;;;8.35;;
44048;SDS011;29717;47.028;15.470;2023-04-24T06:53:24;13.15;;;8.25;;
44048;SDS011;29717;47.028;15.470;2023-04-24T06:56:04;8.60;;;7.63;;
44048;SDS011;29717;47.028;15.470;2023-04-24T06:58:31;10.75;;;7.55;;
44048;SDS011;29717;47.028;15.470;2023-04-24T07:00:59;9.23;;;7.72;;
44048;SDS011;29717;47.028;15.470;2023-04-24T07:03:31;11.05;;;8.07;;
44048;SDS011;29717;47.028;15.470;2023-04-24T07:06:04;12.75;;;9.70;;
44048;SDS011;29717;47.028;15.470;2023-04-24T07:08:31;12.45;;;9.15;;
44048;SDS011;29717;47.028;15.470;2023-04-24T07:11:01;10.02;;;8.95;;
44048;SDS011;29717;47.028;15.470;2023-04-24T07:13:31;10.48;;;8.35;;
44048;SDS011;29717;47.028;15.470;2023-04-24T07:15:58;9.38;;;8.32;;
44048;SDS011;29717;47.028;15.470;2023-04-24T07:18:25;9.30;;;8.40;;
44048;SDS011;29717;47.028;15.470;2023-04-24T07:20:53;10.13;;;8.43;;
44048;SDS011;29717;47.028;15.470;2023-04-24T07:23:24;11.68;;;9.25;;
44048;SDS011;29717;47.028;15.470;2023-04-24T07:25:54;11.63;;;8.73;;
44048;SDS011;29717;47.028;15.470;2023-04-24T07:28:23;10.57;;;8.98;;
44048;SDS011;29717;47.028;15.470;2023-04-24T07:30:50;13.02;;;10.27;;
44048;SDS011;29717;47.028;15.470;2023-04-24T07:33:19;12.90;;;9.52;;
44048;SDS011;29717;47.028;15.470;2023-04-24T07:35:46;11.43;;;8.73;;
44048;SDS011;29717;47.028;15.470;2023-04-24T07:38:14;11.10;;;8.90;;
44048;SDS011;29717;47.028;15.470;2023-04-24T07:40:41;13.05;;;9.25;;
44048;SDS011;29717;47.028;15.470;2023-04-24T07:43:08;14.70;;;10.02;;
44048;SDS011;29717;47.028;15.470;2023-04-24T07:45:35;12.10;;;8.23;;
44048;SDS011;29717;47.028;15.470;2023-04-24T07:48:04;12.98;;;9.60;;
44048;SDS011;29717;47.028;15.470;2023-04-24T07:50:34;14.93;;;9.85;;
44048;SDS011;29717;47.028;15.470;2023-04-24T07:53:01;13.32;;;8.90;;
44048;SDS011;29717;47.028;15.470;2023-04-24T07:55:30;11.70;;;9.32;;
44048;SDS011;29717;47.028;15.470;2023-04-24T07:57:59;12.68;;;8.82;;
44048;SDS011;29717;47.028;15.470;2023-04-24T08:00:26;15.93;;;9.40;;
44048;SDS011;29717;47.028;15.470;2023-04-24T08:02:58;12.77;;;10.10;;
44048;SDS011;29717;47.028;15.470;2023-04-24T08:05:26;13.13;;;10.50;;
44048;SDS011;29717;47.028;15.470;2023-04-24T08:07:54;13.05;;;10.00;;
44048;SDS011;29717;47.028;15.470;2023-04-24T08:10:23;12.48;;;10.85;;
44048;SDS011;29717;47.028;15.470;2023-04-24T08:13:06;15.60;;;10.70;;
44048;SDS011;29717;47.028;15.470;2023-04-24T08:15:33;13.75;;;10.57;;
44048;SDS011;29717;47.028;15.470;2023-04-24T08:18:00;13.70;;;12.13;;
44048;SDS011;29717;47.028;15.470;2023-04-24T08:20:27;19.20;;;12.18;;
44048;SDS011;29717;47.028;15.470;2023-04-24T08:22:55;18.20;;;12.70;;
44048;SDS011;29717;47.028;15.470;2023-04-24T08:25:23;17.52;;;13.07;;
44048;SDS011;29717;47.028;15.470;2023-04-24T08:27:50;16.73;;;12.15;;
44048;SDS011;29717;47.028;15.470;2023-04-24T08:30:21;12.05;;;10.50;;
44048;SDS011;29717;47.028;15.470;2023-04-24T08:32:48;14.32;;;10.10;;
44048;SDS011;29717;47.028;15.470;2023-04-24T08:35:15;13.95;;;11.13;;
44048;SDS011;29717;47.028;15.470;2023-04-24T08:37:42;12.32;;;9.90;;
44048;SDS011;29717;47.028;15.470;2023-04-24T08:40:11;13.23;;;10.70;;
44048;SDS011;29717;47.028;15.470;2023-04-24T08:42:39;13.50;;;10.98;;
44048;SDS011;29717;47.028;15.470;2023-04-24T08:45:09;12.13;;;10.48;;
44048;SDS011;29717;47.028;15.470;2023-04-24T08:47:37;13.05;;;10.15;;
44048;SDS011;29717;47.028;15.470;2023-04-24T08:50:05;14.63;;;10.32;;
44048;SDS011;29717;47.028;15.470;2023-04-24T08:52:35;14.18;;;10.52;;
44048;SDS011;29717;47.028;15.470;2023-04-24T08:55:02;11.70;;;9.48;;
44048;SDS011;29717;47.028;15.470;2023-04-24T08:57:33;13.32;;;9.48;;
44048;SDS011;29717;47.028;15.470;2023-04-24T09:00:02;11.80;;;9.88;;
44048;SDS011;29717;47.028;15.470;2023-04-24T09:02:29;13.18;;;10.35;;
44048;SDS011;29717;47.028;15.470;2023-04-24T09:04:59;12.60;;;10.65;;
44048;SDS011;29717;47.028;15.470;2023-04-24T09:07:28;11.68;;;10.13;;
44048;SDS011;29717;47.028;15.470;2023-04-24T09:09:56;17.05;;;13.38;;
44048;SDS011;29717;47.028;15.470;2023-04-24T09:12:23;17.73;;;13.13;;
44048;SDS011;29717;47.028;15.470;2023-04-24T09:14:55;22.98;;;18.58;;
44048;SDS011;29717;47.028;15.470;2023-04-24T09:17:23;16.67;;;11.93;;
44048;SDS011;29717;47.028;15.470;2023-04-24T09:19:52;14.40;;;10.30;;
44048;SDS011;29717;47.028;15.470;2023-04-24T09:22:20;13.20;;;10.82;;
44048;SDS011;29717;47.028;15.470;2023-04-24T09:24:47;13.00;;;10.00;;
44048;SDS011;29717;47.028;15.470;2023-04-24T09:27:15;15.52;;;11.02;;
44048;SDS011;29717;47.028;15.470;2023-04-24T09:29:53;17.88;;;10.75;;
44048;SDS011;29717;47.028;15.470;2023-04-24T09:32:20;11.93;;;10.38;;
44048;SDS011;29717;47.028;15.470;2023-04-24T09:34:48;12.27;;;10.88;;
44048;SDS011;29717;47.028;15.470;2023-04-24T09:37:28;10.90;;;9.43;;
44048;SDS011;29717;47.028;15.470;2023-04-24T09:40:14;11.93;;;10.38;;
44048;SDS011;29717;47.028;15.470;2023-04-24T09:42:43;10.27;;;7.85;;
44048;SDS011;29717;47.028;15.470;2023-04-24T09:45:10;5.95;;;4.25;;
44048;SDS011;29717;47.028;15.470;2023-04-24T09:47:37;3.15;;;2.85;;
44048;SDS011;29717;47.028;15.470;2023-04-24T09:50:12;4.78;;;3.35;;
44048;SDS011;29717;47.028;15.470;2023-04-24T09:52:44;3.17;;;2.88;;
44048;SDS011;29717;47.028;15.470;2023-04-24T09:55:13;3.47;;;2.50;;
44048;SDS011;29717;47.028;15.470;2023-04-24T09:57:49;4.88;;;2.50;;
44048;SDS011;29717;47.028;15.470;2023-04-24T10:00:22;3.95;;;2.75;;
44048;SDS011;29717;47.028;15.470;2023-04-24T10:02:50;3.33;;;2.40;;
44048;SDS011;29717;47.028;15.470;2023-04-24T10:05:18;4.47;;;2.70;;
44048;SDS011;29717;47.028;15.470;2023-04-24T10:07:47;2.88;;;2.08;;
44048;SDS011;29717;47.028;15.470;2023-04-24T10:10:14;2.50;;;2.10;;
44048;SDS011;29717;47.028;15.470;2023-04-24T10:12:41;3.63;;;2.13;;
44048;SDS011;29717;47.028;15.470;2023-04-24T10:15:09;2.47;;;2.22;;
44048;SDS011;29717;47.028;15.470;2023-04-24T10:17:38;3.42;;;2.10;;
44048;SDS011;29717;47.028;15.470;2023-04-24T10:20:06;2.30;;;2.08;;
44048;SDS011;29717;47.028;15.470;2023-04-24T10:22:33;1.70;;;1.60;;
44048;SDS011;29717;47.028;15.470;2023-04-24T10:27:44;1.73;;;1.40;;
44048;SDS011;29717;47.028;15.470;2023-04-24T10:30:11;2.00;;;1.40;;
44048;SDS011;29717;47.028;15.470;2023-04-24T10:32:41;1.55;;;1.45;;
44048;SDS011;29717;47.028;15.470;2023-04-24T10:35:08;2.15;;;1.30;;
44048;SDS011;29717;47.028;15.470;2023-04-24T10:37:36;1.92;;;1.50;;
44048;SDS011;29717;47.028;15.470;2023-04-24T10:40:07;2.25;;;1.45;;
44048;SDS011;29717;47.028;15.470;2023-04-24T10:42:35;2.63;;;1.45;;
44048;SDS011;29717;47.028;15.470;2023-04-24T10:45:10;1.70;;;1.60;;
44048;SDS011;29717;47.028;15.470;2023-04-24T10:47:42;1.92;;;1.73;;
44048;SDS011;29717;47.028;15.470;2023-04-24T10:50:12;3.90;;;1.70;;
44048;SDS011;29717;47.028;15.470;2023-04-24T10:52:44;2.25;;;1.80;;
44048;SDS011;29717;47.028;15.470;2023-04-24T10:55:12;2.70;;;1.42;;
44048;SDS011;29717;47.028;15.470;2023-04-24T10:57:40;2.35;;;1.20;;
44048;SDS011;29717;47.028;15.470;2023-04-24T11:00:30;2.58;;;1.20;;
44048;SDS011;29717;47.028;15.470;2023-04-24T11:02:59;1.27;;;1.17;;
44048;SDS011;29717;47.028;15.470;2023-04-24T11:08:21;1.30;;;1.20;;
44048;SDS011;29717;47.028;15.470;2023-04-24T11:10:54;1.35;;;1.10;;
44048;SDS011;29717;47.028;15.470;2023-04-24T11:13:24;1.30;;;1.17;;
44048;SDS011;29717;47.028;15.470;2023-04-24T11:16:16;1.40;;;1.30;;
44048;SDS011;29717;47.028;15.470;2023-04-24T11:23:56;1.38;;;1.10;;
44048;SDS011;29717;47.028;15.470;2023-04-24T11:26:24;1.05;;;0.95;;
44048;SDS011;29717;47.028;15.470;2023-04-24T11:29:05;2.88;;;0.90;;
44048;SDS011;29717;47.028;15.470;2023-04-24T11:31:41;0.90;;;0.75;;
44048;SDS011;29717;47.028;15.470;2023-04-24T11:34:14;1.25;;;1.00;;
44048;SDS011;29717;47.028;15.470;2023-04-24T11:36:43;0.95;;;0.90;;
44048;SDS011;29717;47.028;15.470;2023-04-24T11:39:27;1.13;;;1.02;;
44048;SDS011;29717;47.028;15.470;2023-04-24T11:42:01;2.20;;;0.95;;
44048;SDS011;29717;47.028;15.470;2023-04-24T11:44:32;0.95;;;0.70;;
44048;SDS011;29717;47.028;15.470;2023-04-24T11:47:04;0.90;;;0.90;;
44048;SDS011;29717;47.028;15.470;2023-04-24T11:49:31;0.93;;;0.90;;
44048;SDS011;29717;47.028;15.470;2023-04-24T11:52:08;3.20;;;0.98;;
44048;SDS011;29717;47.028;15.470;2023-04-24T11:54:35;0.80;;;0.80;;
44048;SDS011;29717;47.028;15.470;2023-04-24T11:57:10;0.93;;;0.80;;
44048;SDS011;29717;47.028;15.470;2023-04-24T11:59:42;1.63;;;0.90;;
44048;SDS011;29717;47.028;15.470;2023-04-24T12:02:21;0.80;;;0.80;;
44048;SDS011;29717;47.028;15.470;2023-04-24T12:04:51;1.42;;;1.17;;
44048;SDS011;29717;47.028;15.470;2023-04-24T12:07:19;1.23;;;1.13;;
44048;SDS011;29717;47.028;15.470;2023-04-24T12:09:46;1.42;;;0.80;;
44048;SDS011;29717;47.028;15.470;2023-04-24T12:12:15;3.33;;;2.50;;
44048;SDS011;29717;47.028;15.470;2023-04-24T12:14:56;1.35;;;1.25;;
44048;SDS011;29717;47.028;15.470;2023-04-24T12:17:25;3.45;;;1.70;;
44048;SDS011;29717;47.028;15.470;2023-04-24T12:19:56;4.57;;;3.22;;
44048;SDS011;29717;47.028;15.470;2023-04-24T12:22:23;4.78;;;2.83;;
44048;SDS011;29717;47.028;15.470;2023-04-24T12:25:00;1.40;;;1.08;;
44048;SDS011;29717;47.028;15.470;2023-04-24T12:27:31;1.38;;;0.98;;
44048;SDS011;29717;47.028;15.470;2023-04-24T12:29:58;0.80;;;0.80;;
44048;SDS011;29717;47.028;15.470;2023-04-24T12:32:29;1.40;;;0.90;;
44048;SDS011;29717;47.028;15.470;2023-04-24T12:34:56;2.08;;;0.80;;
44048;SDS011;29717;47.028;15.470;2023-04-24T12:37:24;0.93;;;0.70;;
44048;SDS011;29717;47.028;15.470;2023-04-24T12:40:00;1.05;;;0.90;;
44048;SDS011;29717;47.028;15.470;2023-04-24T12:42:28;1.67;;;0.80;;
44048;SDS011;29717;47.028;15.470;2023-04-24T12:44:56;4.05;;;1.02;;
44048;SDS011;29717;47.028;15.470;2023-04-24T12:47:28;0.80;;;0.80;;
44048;SDS011;29717;47.028;15.470;2023-04-24T12:49:54;3.40;;;0.73;;
44048;SDS011;29717;47.028;15.470;2023-04-24T12:52:21;0.80;;;0.68;;
44048;SDS011;29717;47.028;15.470;2023-04-24T12:54:49;1.08;;;0.98;;
44048;SDS011;29717;47.028;15.470;2023-04-24T12:57:16;1.85;;;0.65;;
44048;SDS011;29717;47.028;15.470;2023-04-24T12:59:42;0.77;;;0.60;;
44048;SDS011;29717;47.028;15.470;2023-04-24T13:02:09;1.40;;;0.73;;
44048;SDS011;29717;47.028;15.470;2023-04-24T13:04:38;0.60;;;0.60;;
44048;SDS011;29717;47.028;15.470;2023-04-24T13:07:08;2.53;;;0.65;;
44048;SDS011;29717;47.028;15.470;2023-04-24T13:09:35;0.85;;;0.50;;
44048;SDS011;29717;47.028;15.470;2023-04-24T13:12:04;0.63;;;0.40;;
44048;SDS011;29717;47.028;15.470;2023-04-24T13:14:31;3.10;;;0.80;;
44048;SDS011;29717;47.028;15.470;2023-04-24T13:16:58;0.60;;;0.60;;
44048;SDS011;29717;47.028;15.470;2023-04-24T13:19:28;1.17;;;0.50;;
44048;SDS011;29717;47.028;15.470;2023-04-24T13:21:59;0.50;;;0.50;;
44048;SDS011;29717;47.028;15.470;2023-04-24T13:24:26;3.83;;;0.60;;
44048;SDS011;29717;47.028;15.470;2023-04-24T13:26:53;0.52;;;0.50;;
44048;SDS011;29717;47.028;15.470;2023-04-24T13:29:21;0.50;;;0.50;;
44048;SDS011;29717;47.028;15.470;2023-04-24T13:31:49;0.60;;;0.60;;
44048;SDS011;29717;47.028;15.470;2023-04-24T13:34:16;4.22;;;0.70;;
44048;SDS011;29717;47.028;15.470;2023-04-24T13:36:47;0.52;;;0.52;;
44048;SDS011;29717;47.028;15.470;2023-04-24T13:39:15;0.60;;;0.60;;
44048;SDS011;29717;47.028;15.470;2023-04-24T13:41:47;0.60;;;0.57;;
44048;SDS011;29717;47.028;15.470;2023-04-24T13:44:14;0.65;;;0.65;;
44048;SDS011;29717;47.028;15.470;2023-04-24T13:46:44;2.58;;;0.70;;
44048;SDS011;29717;47.028;15.470;2023-04-24T13:49:11;1.30;;;0.70;;
44048;SDS011;29717;47.028;15.470;2023-04-24T13:51:38;0.60;;;0.60;;
44048;SDS011;29717;47.028;15.470;2023-04-24T13:54:05;1.05;;;0.80;;
44048;SDS011;29717;47.028;15.470;2023-04-24T13:56:33;0.95;;;0.60;;
44048;SDS011;29717;47.028;15.470;2023-04-24T13:59:00;1.75;;;0.55;;
44048;SDS011;29717;47.028;15.470;2023-04-24T14:01:27;0.80;;;0.63;;
44048;SDS011;29717;47.028;15.470;2023-04-24T14:03:58;0.98;;;0.73;;
44048;SDS011;29717;47.028;15.470;2023-04-24T14:06:38;0.60;;;0.60;;
44048;SDS011;29717;47.028;15.470;2023-04-24T14:09:14;0.70;;;0.70;;
44048;SDS011;29717;47.028;15.470;2023-04-24T14:12:02;1.08;;;0.68;;
44048;SDS011;29717;47.028;15.470;2023-04-24T14:14:43;0.95;;;0.82;;
44048;SDS011;29717;47.028;15.470;2023-04-24T14:17:18;6.40;;;4.50;;
44048;SDS011;29717;47.028;15.470;2023-04-24T14:20:36;1.70;;;1.30;;
44048;SDS011;29717;47.028;15.470;2023-04-24T14:23:05;4.15;;;1.15;;
44048;SDS011;29717;47.028;15.470;2023-04-24T14:25:45;2.17;;;0.73;;
44048;SDS011;29717;47.028;15.470;2023-04-24T14:28:19;1.20;;;1.02;;
44048;SDS011;29717;47.028;15.470;2023-04-24T14:30:46;1.77;;;1.00;;
44048;SDS011;29717;47.028;15.470;2023-04-24T14:33:14;0.80;;;0.80;;
44048;SDS011;29717;47.028;15.470;2023-04-24T14:35:54;2.15;;;1.52;;
44048;SDS011;29717;47.028;15.470;2023-04-24T14:38:21;1.60;;;1.50;;
44048;SDS011;29717;47.028;15.470;2023-04-24T14:40:48;2.60;;;1.20;;
44048;SDS011;29717;47.028;15.470;2023-04-24T14:43:23;1.55;;;1.30;;
44048;SDS011;29717;47.028;15.470;2023-04-24T14:45:52;2.75;;;1.83;;
44048;SDS011;29717;47.028;15.470;2023-04-24T14:48:29;2.50;;;2.00;;
44048;SDS011;29717;47.028;15.470;2023-04-24T14:51:04;3.97;;;1.63;;
44048;SDS011;29717;47.028;15.470;2023-04-24T14:53:31;2.63;;;1.27;;